sensor_id;sensor_type;location;lat;lon;timestamp;pressure;altitude;pressure_sealevel;temperature;humidity
14089;BME280;7120;52.890;6.040;2022-12-07T00:03:37;101623.00;;;3.84;94.88
14089;BME280;7120;52.890;6.040;2022-12-07T00:06:04;101637.09;;;3.86;94.40
14089;BME280;7120;52.890;6.040;2022-12-07T00:08:31;101638.91;;;3.81;94.79
14089;BME280;7120;52.890;6.040;2022-12-07T00:11:10;101625.94;;;3.71;94.31
14089;BME280;7120;52.890;6.040;2022-12-07T00:13:36;101643.69;;;3.91;95.22
14089;BME280;7120;52.890;6.040;2022-12-07T00:16:13;101612.91;;;3.68;94.88
14089;BME280;7120;52.890;6.040;2022-12-07T00:18:40;101619.03;;;3.75;94.88
14089;BME280;7120;52.890;6.040;2022-12-07T00:21:10;101635.84;;;3.77;94.75
14089;BME280;7120;52.890;6.040;2022-12-07T00:23:37;101605.16;;;3.60;95.42
14089;BME280;7120;52.890;6.040;2022-12-07T00:26:07;101612.78;;;3.63;94.97
14089;BME280;7120;52.890;6.040;2022-12-07T00:28:33;101633.25;;;3.71;95.33
14089;BME280;7120;52.890;6.040;2022-12-07T00:31:10;101629.34;;;3.78;94.92
14089;BME280;7120;52.890;6.040;2022-12-07T00:33:38;101631.00;;;3.79;94.39
14089;BME280;7120;52.890;6.040;2022-12-07T00:36:06;101609.97;;;3.70;94.78
14089;BME280;7120;52.890;6.040;2022-12-07T00:38:34;101631.56;;;3.93;94.46
14089;BME280;7120;52.890;6.040;2022-12-07T00:41:05;101605.75;;;3.74;93.84
14089;BME280;7120;52.890;6.040;2022-12-07T00:43:31;101620.75;;;3.93;93.82
14089;BME280;7120;52.890;6.040;2022-12-07T00:45:57;101621.34;;;3.83;93.82
14089;BME280;7120;52.890;6.040;2022-12-07T00:48:23;101623.44;;;3.93;93.48
14089;BME280;7120;52.890;6.040;2022-12-07T00:50:49;101622.50;;;3.99;93.13
14089;BME280;7120;52.890;6.040;2022-12-07T00:53:15;101618.41;;;3.97;93.23
14089;BME280;7120;52.890;6.040;2022-12-07T00:55:41;101618.03;;;4.05;92.84
14089;BME280;7120;52.890;6.040;2022-12-07T00:58:06;101627.09;;;3.99;92.59
14089;BME280;7120;52.890;6.040;2022-12-07T01:00:32;101627.38;;;3.74;93.63
14089;BME280;7120;52.890;6.040;2022-12-07T01:02:59;101617.72;;;3.78;93.72
14089;BME280;7120;52.890;6.040;2022-12-07T01:05:25;101614.59;;;4.09;93.70
14089;BME280;7120;52.890;6.040;2022-12-07T01:07:50;101608.44;;;4.14;92.77
14089;BME280;7120;52.890;6.040;2022-12-07T01:10:16;101598.44;;;4.14;92.56
14089;BME280;7120;52.890;6.040;2022-12-07T01:12:41;101599.72;;;4.24;92.24
14089;BME280;7120;52.890;6.040;2022-12-07T01:15:07;101596.13;;;4.06;91.53
14089;BME280;7120;52.890;6.040;2022-12-07T01:17:33;101607.78;;;4.07;91.94
14089;BME280;7120;52.890;6.040;2022-12-07T01:19:58;101614.50;;;4.04;92.43
14089;BME280;7120;52.890;6.040;2022-12-07T01:22:24;101600.28;;;3.97;92.77
14089;BME280;7120;52.890;6.040;2022-12-07T01:24:49;101606.56;;;4.14;92.75
14089;BME280;7120;52.890;6.040;2022-12-07T01:27:15;101586.63;;;3.92;93.17
14089;BME280;7120;52.890;6.040;2022-12-07T01:29:41;101591.28;;;4.08;93.08
14089;BME280;7120;52.890;6.040;2022-12-07T01:32:06;101606.34;;;4.16;92.85
14089;BME280;7120;52.890;6.040;2022-12-07T01:34:32;101591.78;;;4.05;92.56
14089;BME280;7120;52.890;6.040;2022-12-07T01:36:57;101592.84;;;4.04;92.16
14089;BME280;7120;52.890;6.040;2022-12-07T01:39:23;101597.56;;;3.97;92.20
14089;BME280;7120;52.890;6.040;2022-12-07T01:41:49;101606.53;;;3.86;93.11
14089;BME280;7120;52.890;6.040;2022-12-07T01:44:21;101602.06;;;3.80;93.03
14089;BME280;7120;52.890;6.040;2022-12-07T01:46:55;101594.56;;;3.58;93.56
14089;BME280;7120;52.890;6.040;2022-12-07T01:49:39;101610.34;;;3.62;94.22
14089;BME280;7120;52.890;6.040;2022-12-07T01:52:28;101606.69;;;3.44;94.78
14089;BME280;7120;52.890;6.040;2022-12-07T01:55:08;101608.56;;;3.55;95.24
14089;BME280;7120;52.890;6.040;2022-12-07T01:57:41;101613.00;;;3.73;95.43
14089;BME280;7120;52.890;6.040;2022-12-07T02:00:10;101628.66;;;3.83;94.76
14089;BME280;7120;52.890;6.040;2022-12-07T02:02:47;101619.34;;;4.02;94.38
14089;BME280;7120;52.890;6.040;2022-12-07T02:05:13;101606.25;;;3.99;93.75
14089;BME280;7120;52.890;6.040;2022-12-07T02:07:39;101625.28;;;4.16;93.08
14089;BME280;7120;52.890;6.040;2022-12-07T02:10:16;101610.09;;;4.15;92.93
14089;BME280;7120;52.890;6.040;2022-12-07T02:12:43;101611.69;;;4.28;91.84
14089;BME280;7120;52.890;6.040;2022-12-07T02:15:11;101613.03;;;4.25;92.71
14089;BME280;7120;52.890;6.040;2022-12-07T02:18:00;101599.13;;;4.22;92.41
14089;BME280;7120;52.890;6.040;2022-12-07T02:30:56;101622.50;;;4.39;92.08
14089;BME280;7120;52.890;6.040;2022-12-07T02:33:33;101620.22;;;4.48;92.71
14089;BME280;7120;52.890;6.040;2022-12-07T02:36:06;101612.00;;;4.43;92.66
14089;BME280;7120;52.890;6.040;2022-12-07T02:41:31;101580.91;;;4.46;94.05
14089;BME280;7120;52.890;6.040;2022-12-07T02:44:02;101577.75;;;4.65;93.39
14089;BME280;7120;52.890;6.040;2022-12-07T02:46:52;101573.72;;;4.85;91.90
14089;BME280;7120;52.890;6.040;2022-12-07T02:49:36;101582.00;;;4.78;91.43
14089;BME280;7120;52.890;6.040;2022-12-07T02:52:04;101583.91;;;4.78;91.34
14089;BME280;7120;52.890;6.040;2022-12-07T02:54:29;101579.00;;;4.75;92.10
14089;BME280;7120;52.890;6.040;2022-12-07T03:08:07;101584.72;;;4.78;91.38
14089;BME280;7120;52.890;6.040;2022-12-07T03:18:24;101578.91;;;4.41;91.83
14089;BME280;7120;52.890;6.040;2022-12-07T03:20:55;101577.66;;;4.60;91.54
14089;BME280;7120;52.890;6.040;2022-12-07T03:23:23;101557.53;;;4.56;91.51
14089;BME280;7120;52.890;6.040;2022-12-07T03:25:55;101567.22;;;4.69;90.65
14089;BME280;7120;52.890;6.040;2022-12-07T03:28:24;101578.47;;;4.78;89.61
14089;BME280;7120;52.890;6.040;2022-12-07T03:31:03;101566.91;;;4.65;90.14
14089;BME280;7120;52.890;6.040;2022-12-07T03:33:40;101571.19;;;4.78;89.95
14089;BME280;7120;52.890;6.040;2022-12-07T03:36:13;101576.28;;;4.75;89.93
14089;BME280;7120;52.890;6.040;2022-12-07T03:38:48;101566.25;;;4.58;90.53
14089;BME280;7120;52.890;6.040;2022-12-07T03:41:19;101556.78;;;4.44;90.54
14089;BME280;7120;52.890;6.040;2022-12-07T03:43:47;101549.69;;;4.26;91.25
14089;BME280;7120;52.890;6.040;2022-12-07T03:49:11;101544.81;;;4.11;91.62
14089;BME280;7120;52.890;6.040;2022-12-07T03:52:15;101553.06;;;4.05;91.61
14089;BME280;7120;52.890;6.040;2022-12-07T03:54:53;101561.19;;;4.05;92.33
14089;BME280;7120;52.890;6.040;2022-12-07T03:57:21;101554.03;;;3.99;92.16
14089;BME280;7120;52.890;6.040;2022-12-07T03:59:48;101550.38;;;3.93;91.76
14089;BME280;7120;52.890;6.040;2022-12-07T04:02:14;101558.19;;;3.90;91.81
14089;BME280;7120;52.890;6.040;2022-12-07T04:04:41;101552.63;;;3.96;92.01
14089;BME280;7120;52.890;6.040;2022-12-07T04:07:07;101557.31;;;4.01;92.11
14089;BME280;7120;52.890;6.040;2022-12-07T04:09:32;101548.28;;;3.95;92.47
14089;BME280;7120;52.890;6.040;2022-12-07T04:11:58;101546.72;;;3.99;92.27
14089;BME280;7120;52.890;6.040;2022-12-07T04:14:23;101541.81;;;3.96;92.29
14089;BME280;7120;52.890;6.040;2022-12-07T04:16:52;101559.09;;;3.95;91.58
14089;BME280;7120;52.890;6.040;2022-12-07T04:19:20;101562.78;;;3.89;92.31
14089;BME280;7120;52.890;6.040;2022-12-07T04:21:46;101574.53;;;3.95;91.47
14089;BME280;7120;52.890;6.040;2022-12-07T04:24:13;101568.88;;;3.96;91.59
14089;BME280;7120;52.890;6.040;2022-12-07T04:26:39;101574.19;;;3.79;91.35
14089;BME280;7120;52.890;6.040;2022-12-07T04:29:05;101552.81;;;3.66;91.51
14089;BME280;7120;52.890;6.040;2022-12-07T04:31:30;101548.25;;;3.55;92.11
14089;BME280;7120;52.890;6.040;2022-12-07T04:33:56;101556.94;;;3.69;92.17
14089;BME280;7120;52.890;6.040;2022-12-07T04:36:21;101566.81;;;3.75;91.05
14089;BME280;7120;52.890;6.040;2022-12-07T04:38:47;101565.06;;;3.69;91.46
14089;BME280;7120;52.890;6.040;2022-12-07T04:41:12;101545.19;;;3.51;91.37
14089;BME280;7120;52.890;6.040;2022-12-07T04:43:37;101559.53;;;3.64;91.34
14089;BME280;7120;52.890;6.040;2022-12-07T04:46:03;101543.31;;;3.52;91.63
14089;BME280;7120;52.890;6.040;2022-12-07T04:48:28;101564.38;;;3.50;91.85
14089;BME280;7120;52.890;6.040;2022-12-07T04:50:54;101548.84;;;3.45;92.02
14089;BME280;7120;52.890;6.040;2022-12-07T04:53:19;101561.09;;;3.48;92.53
14089;BME280;7120;52.890;6.040;2022-12-07T04:55:45;101556.03;;;3.40;92.69
14089;BME280;7120;52.890;6.040;2022-12-07T04:58:11;101556.25;;;3.38;92.34
14089;BME280;7120;52.890;6.040;2022-12-07T05:00:37;101533.72;;;3.33;92.52
14089;BME280;7120;52.890;6.040;2022-12-07T05:03:03;101549.69;;;3.34;92.27
14089;BME280;7120;52.890;6.040;2022-12-07T05:05:28;101541.13;;;3.25;92.58
14089;BME280;7120;52.890;6.040;2022-12-07T05:07:54;101545.09;;;3.35;92.52
14089;BME280;7120;52.890;6.040;2022-12-07T05:10:19;101541.50;;;3.17;92.79
14089;BME280;7120;52.890;6.040;2022-12-07T05:12:45;101532.06;;;3.20;93.04
14089;BME280;7120;52.890;6.040;2022-12-07T05:15:11;101546.97;;;3.22;92.85
14089;BME280;7120;52.890;6.040;2022-12-07T05:17:36;101544.66;;;3.26;92.63
14089;BME280;7120;52.890;6.040;2022-12-07T05:20:02;101540.88;;;3.27;93.09
14089;BME280;7120;52.890;6.040;2022-12-07T05:22:28;101544.53;;;3.33;93.33
14089;BME280;7120;52.890;6.040;2022-12-07T05:24:54;101540.28;;;3.48;93.55
14089;BME280;7120;52.890;6.040;2022-12-07T05:27:20;101545.44;;;3.62;93.14
14089;BME280;7120;52.890;6.040;2022-12-07T05:29:45;101546.69;;;3.71;92.42
14089;BME280;7120;52.890;6.040;2022-12-07T05:32:10;101553.72;;;3.83;92.26
14089;BME280;7120;52.890;6.040;2022-12-07T05:34:36;101546.75;;;3.88;91.76
14089;BME280;7120;52.890;6.040;2022-12-07T05:37:01;101538.19;;;3.79;91.66
14089;BME280;7120;52.890;6.040;2022-12-07T05:39:26;101552.53;;;3.79;92.44
14089;BME280;7120;52.890;6.040;2022-12-07T05:41:52;101546.44;;;3.84;92.08
14089;BME280;7120;52.890;6.040;2022-12-07T05:44:36;101557.34;;;3.89;92.28
14089;BME280;7120;52.890;6.040;2022-12-07T05:47:01;101546.75;;;3.88;93.01
14089;BME280;7120;52.890;6.040;2022-12-07T05:49:26;101558.63;;;3.98;93.12
14089;BME280;7120;52.890;6.040;2022-12-07T05:51:52;101540.16;;;3.95;93.61
14089;BME280;7120;52.890;6.040;2022-12-07T05:54:17;101535.50;;;4.07;93.92
14089;BME280;7120;52.890;6.040;2022-12-07T05:56:42;101526.78;;;4.17;94.51
14089;BME280;7120;52.890;6.040;2022-12-07T05:59:08;101526.66;;;4.40;94.43
14089;BME280;7120;52.890;6.040;2022-12-07T06:01:54;101531.19;;;4.52;93.15
14089;BME280;7120;52.890;6.040;2022-12-07T06:04:20;101538.50;;;4.51;92.64
14089;BME280;7120;52.890;6.040;2022-12-07T06:06:46;101530.03;;;4.48;92.33
14089;BME280;7120;52.890;6.040;2022-12-07T06:09:12;101538.25;;;4.53;92.31
14089;BME280;7120;52.890;6.040;2022-12-07T06:11:38;101531.66;;;4.49;91.38
14089;BME280;7120;52.890;6.040;2022-12-07T06:14:22;101519.44;;;4.46;91.30
14089;BME280;7120;52.890;6.040;2022-12-07T06:16:47;101512.50;;;4.22;90.86
14089;BME280;7120;52.890;6.040;2022-12-07T06:19:13;101525.16;;;4.33;90.67
14089;BME280;7120;52.890;6.040;2022-12-07T06:21:38;101519.75;;;4.33;90.89
14089;BME280;7120;52.890;6.040;2022-12-07T06:24:04;101522.66;;;4.14;90.09
14089;BME280;7120;52.890;6.040;2022-12-07T06:26:29;101524.69;;;4.07;90.74
14089;BME280;7120;52.890;6.040;2022-12-07T06:28:55;101506.94;;;4.00;90.65
14089;BME280;7120;52.890;6.040;2022-12-07T06:31:20;101525.19;;;4.04;90.70
14089;BME280;7120;52.890;6.040;2022-12-07T06:33:46;101505.13;;;3.89;91.25
14089;BME280;7120;52.890;6.040;2022-12-07T06:36:11;101517.84;;;3.88;90.97
14089;BME280;7120;52.890;6.040;2022-12-07T06:38:37;101523.84;;;3.78;90.98
14089;BME280;7120;52.890;6.040;2022-12-07T06:41:02;101525.06;;;3.71;91.26
14089;BME280;7120;52.890;6.040;2022-12-07T06:43:28;101531.66;;;3.63;91.64
14089;BME280;7120;52.890;6.040;2022-12-07T06:45:53;101535.28;;;3.69;91.80
14089;BME280;7120;52.890;6.040;2022-12-07T06:48:19;101527.31;;;3.62;91.84
14089;BME280;7120;52.890;6.040;2022-12-07T06:50:45;101529.56;;;3.53;92.02
14089;BME280;7120;52.890;6.040;2022-12-07T06:53:11;101530.53;;;3.47;91.59
14089;BME280;7120;52.890;6.040;2022-12-07T06:55:36;101538.06;;;3.34;91.44
14089;BME280;7120;52.890;6.040;2022-12-07T06:58:01;101537.72;;;3.18;91.82
14089;BME280;7120;52.890;6.040;2022-12-07T07:00:27;101550.19;;;3.19;92.66
14089;BME280;7120;52.890;6.040;2022-12-07T07:02:53;101536.06;;;2.94;92.75
14089;BME280;7120;52.890;6.040;2022-12-07T07:05:18;101556.25;;;3.03;92.61
14089;BME280;7120;52.890;6.040;2022-12-07T07:07:46;101559.31;;;2.95;93.58
14089;BME280;7120;52.890;6.040;2022-12-07T07:10:13;101556.50;;;3.01;93.53
14089;BME280;7120;52.890;6.040;2022-12-07T07:12:38;101560.53;;;3.11;94.05
14089;BME280;7120;52.890;6.040;2022-12-07T07:15:04;101514.34;;;3.00;94.50
14089;BME280;7120;52.890;6.040;2022-12-07T07:17:29;101549.81;;;3.39;94.03
14089;BME280;7120;52.890;6.040;2022-12-07T07:19:56;101532.19;;;3.25;92.94
14089;BME280;7120;52.890;6.040;2022-12-07T07:22:22;101534.31;;;3.11;93.47
14089;BME280;7120;52.890;6.040;2022-12-07T07:24:47;101547.47;;;3.08;92.89
14089;BME280;7120;52.890;6.040;2022-12-07T07:27:13;101553.56;;;3.15;93.58
14089;BME280;7120;52.890;6.040;2022-12-07T07:29:38;101541.94;;;3.26;93.67
14089;BME280;7120;52.890;6.040;2022-12-07T07:32:04;101550.16;;;3.31;93.62
14089;BME280;7120;52.890;6.040;2022-12-07T07:34:30;101570.13;;;3.42;93.01
14089;BME280;7120;52.890;6.040;2022-12-07T07:36:55;101555.34;;;3.33;92.91
14089;BME280;7120;52.890;6.040;2022-12-07T07:39:21;101563.53;;;3.38;92.88
14089;BME280;7120;52.890;6.040;2022-12-07T07:41:46;101557.81;;;3.11;93.65
14089;BME280;7120;52.890;6.040;2022-12-07T07:44:12;101566.38;;;3.19;93.56
14089;BME280;7120;52.890;6.040;2022-12-07T07:46:37;101562.88;;;3.19;93.17
14089;BME280;7120;52.890;6.040;2022-12-07T07:49:02;101563.22;;;3.11;92.80
14089;BME280;7120;52.890;6.040;2022-12-07T07:51:28;101558.97;;;3.03;93.12
14089;BME280;7120;52.890;6.040;2022-12-07T07:53:53;101567.66;;;2.93;93.42
14089;BME280;7120;52.890;6.040;2022-12-07T07:56:19;101563.06;;;2.94;94.01
14089;BME280;7120;52.890;6.040;2022-12-07T07:58:44;101560.75;;;2.97;94.05
14089;BME280;7120;52.890;6.040;2022-12-07T08:01:09;101559.19;;;3.01;94.27
14089;BME280;7120;52.890;6.040;2022-12-07T08:03:35;101560.41;;;3.06;94.10
14089;BME280;7120;52.890;6.040;2022-12-07T08:06:04;101555.44;;;2.91;93.56
14089;BME280;7120;52.890;6.040;2022-12-07T08:08:29;101536.75;;;2.78;92.85
14089;BME280;7120;52.890;6.040;2022-12-07T08:10:55;101510.28;;;2.44;93.12
14089;BME280;7120;52.890;6.040;2022-12-07T08:13:20;101559.53;;;2.70;93.64
14089;BME280;7120;52.890;6.040;2022-12-07T08:15:47;101560.13;;;2.84;93.19
14089;BME280;7120;52.890;6.040;2022-12-07T08:18:13;101569.88;;;2.85;93.05
14089;BME280;7120;52.890;6.040;2022-12-07T08:20:40;101553.69;;;2.85;93.82
14089;BME280;7120;52.890;6.040;2022-12-07T08:23:06;101578.13;;;3.13;94.01
14089;BME280;7120;52.890;6.040;2022-12-07T08:25:33;101572.63;;;3.20;93.42
14089;BME280;7120;52.890;6.040;2022-12-07T08:27:58;101548.75;;;3.17;92.95
14089;BME280;7120;52.890;6.040;2022-12-07T08:30:25;101579.78;;;3.26;92.67
14089;BME280;7120;52.890;6.040;2022-12-07T08:32:51;101580.59;;;3.15;92.24
14089;BME280;7120;52.890;6.040;2022-12-07T08:35:16;101604.13;;;3.26;92.72
14089;BME280;7120;52.890;6.040;2022-12-07T08:37:42;101592.13;;;3.22;92.77
14089;BME280;7120;52.890;6.040;2022-12-07T08:40:09;101604.09;;;3.38;92.80
14089;BME280;7120;52.890;6.040;2022-12-07T08:42:35;101593.88;;;3.51;92.64
14089;BME280;7120;52.890;6.040;2022-12-07T08:45:06;101587.25;;;3.71;91.15
14089;BME280;7120;52.890;6.040;2022-12-07T08:47:32;101580.78;;;3.72;90.94
14089;BME280;7120;52.890;6.040;2022-12-07T08:49:57;101581.75;;;3.66;90.74
14089;BME280;7120;52.890;6.040;2022-12-07T08:52:31;101580.78;;;3.72;91.03
14089;BME280;7120;52.890;6.040;2022-12-07T08:54:58;101571.25;;;3.81;91.49
14089;BME280;7120;52.890;6.040;2022-12-07T08:57:24;101571.34;;;3.86;90.58
14089;BME280;7120;52.890;6.040;2022-12-07T08:59:49;101574.06;;;3.86;90.61
14089;BME280;7120;52.890;6.040;2022-12-07T09:02:14;101593.53;;;4.11;90.51
14089;BME280;7120;52.890;6.040;2022-12-07T09:04:40;101568.91;;;4.13;90.01
14089;BME280;7120;52.890;6.040;2022-12-07T09:07:05;101584.16;;;4.76;89.21
14089;BME280;7120;52.890;6.040;2022-12-07T09:09:31;101582.84;;;5.12;87.92
14089;BME280;7120;52.890;6.040;2022-12-07T09:11:56;101557.66;;;5.34;87.16
14089;BME280;7120;52.890;6.040;2022-12-07T09:14:22;101552.53;;;5.54;85.88
14089;BME280;7120;52.890;6.040;2022-12-07T09:16:47;101551.00;;;5.41;85.23
14089;BME280;7120;52.890;6.040;2022-12-07T09:19:13;101548.94;;;5.48;85.76
14089;BME280;7120;52.890;6.040;2022-12-07T09:21:38;101552.00;;;5.35;85.32
14089;BME280;7120;52.890;6.040;2022-12-07T09:24:04;101560.06;;;5.30;86.65
14089;BME280;7120;52.890;6.040;2022-12-07T09:26:29;101544.88;;;5.29;86.94
14089;BME280;7120;52.890;6.040;2022-12-07T09:28:54;101567.56;;;5.23;87.17
14089;BME280;7120;52.890;6.040;2022-12-07T09:31:20;101548.66;;;5.11;86.64
14089;BME280;7120;52.890;6.040;2022-12-07T09:33:45;101545.66;;;5.08;86.75
14089;BME280;7120;52.890;6.040;2022-12-07T09:36:10;101562.66;;;5.03;86.37
14089;BME280;7120;52.890;6.040;2022-12-07T09:38:36;101553.69;;;5.03;86.63
14089;BME280;7120;52.890;6.040;2022-12-07T09:41:05;101564.69;;;4.96;87.05
14089;BME280;7120;52.890;6.040;2022-12-07T09:43:32;101563.72;;;5.02;87.24
14089;BME280;7120;52.890;6.040;2022-12-07T09:46:02;101563.63;;;5.14;88.53
14089;BME280;7120;52.890;6.040;2022-12-07T09:48:34;101576.34;;;5.13;87.84
14089;BME280;7120;52.890;6.040;2022-12-07T09:51:02;101567.88;;;5.27;87.68
14089;BME280;7120;52.890;6.040;2022-12-07T09:53:37;101569.47;;;5.22;87.17
14089;BME280;7120;52.890;6.040;2022-12-07T09:56:03;101561.72;;;5.31;87.27
14089;BME280;7120;52.890;6.040;2022-12-07T09:58:31;101558.56;;;5.78;87.02
14089;BME280;7120;52.890;6.040;2022-12-07T10:03:30;101557.91;;;6.37;85.55
14089;BME280;7120;52.890;6.040;2022-12-07T10:05:57;101543.53;;;6.41;84.73
14089;BME280;7120;52.890;6.040;2022-12-07T10:08:22;101568.50;;;6.38;84.54
14089;BME280;7120;52.890;6.040;2022-12-07T10:10:53;101568.19;;;6.61;83.35
14089;BME280;7120;52.890;6.040;2022-12-07T10:13:21;101559.88;;;6.46;83.77
14089;BME280;7120;52.890;6.040;2022-12-07T10:18:18;101584.59;;;6.45;84.91
14089;BME280;7120;52.890;6.040;2022-12-07T10:20:46;101579.97;;;6.45;85.33
14089;BME280;7120;52.890;6.040;2022-12-07T10:23:17;101574.56;;;5.96;85.43
14089;BME280;7120;52.890;6.040;2022-12-07T10:25:44;101566.44;;;5.79;87.48
14089;BME280;7120;52.890;6.040;2022-12-07T10:28:19;101549.78;;;5.71;88.14
14089;BME280;7120;52.890;6.040;2022-12-07T10:30:56;101560.09;;;5.91;87.77
14089;BME280;7120;52.890;6.040;2022-12-07T10:33:33;101554.63;;;5.69;87.78
14089;BME280;7120;52.890;6.040;2022-12-07T10:35:59;101544.41;;;5.54;88.26
14089;BME280;7120;52.890;6.040;2022-12-07T10:38:27;101541.59;;;5.49;88.62
14089;BME280;7120;52.890;6.040;2022-12-07T10:41:06;101542.03;;;5.41;89.55
14089;BME280;7120;52.890;6.040;2022-12-07T10:43:32;101538.97;;;5.54;89.92
14089;BME280;7120;52.890;6.040;2022-12-07T10:46:18;101540.25;;;5.68;88.79
14089;BME280;7120;52.890;6.040;2022-12-07T10:51:55;101534.16;;;6.00;87.73
14089;BME280;7120;52.890;6.040;2022-12-07T10:54:36;101530.28;;;5.96;86.88
14089;BME280;7120;52.890;6.040;2022-12-07T10:57:17;101530.25;;;6.18;86.63
14089;BME280;7120;52.890;6.040;2022-12-07T11:05:23;101515.44;;;6.57;85.55
14089;BME280;7120;52.890;6.040;2022-12-07T11:08:21;101515.63;;;6.83;85.47
14089;BME280;7120;52.890;6.040;2022-12-07T11:11:04;101502.16;;;6.98;85.11
14089;BME280;7120;52.890;6.040;2022-12-07T11:22:01;101517.31;;;7.26;83.37
14089;BME280;7120;52.890;6.040;2022-12-07T11:29:57;101518.34;;;7.20;82.59
14089;BME280;7120;52.890;6.040;2022-12-07T11:37:36;101482.53;;;6.27;78.74
14089;BME280;7120;52.890;6.040;2022-12-07T11:42:52;101474.66;;;5.98;79.94
14089;BME280;7120;52.890;6.040;2022-12-07T11:47:51;101479.47;;;6.18;83.26
14089;BME280;7120;52.890;6.040;2022-12-07T11:50:31;101480.47;;;6.39;83.98
14089;BME280;7120;52.890;6.040;2022-12-07T11:55:40;101458.06;;;6.96;82.32
14089;BME280;7120;52.890;6.040;2022-12-07T12:03:45;101445.75;;;7.31;80.71
14089;BME280;7120;52.890;6.040;2022-12-07T12:06:11;101443.38;;;7.44;79.92
14089;BME280;7120;52.890;6.040;2022-12-07T12:08:55;101437.34;;;7.37;80.69
14089;BME280;7120;52.890;6.040;2022-12-07T12:22:39;101435.41;;;8.26;78.39
14089;BME280;7120;52.890;6.040;2022-12-07T12:25:19;101433.47;;;8.21;77.46
14089;BME280;7120;52.890;6.040;2022-12-07T12:27:47;101437.31;;;8.36;77.59
14089;BME280;7120;52.890;6.040;2022-12-07T12:30:35;101412.75;;;8.31;75.51
14089;BME280;7120;52.890;6.040;2022-12-07T12:33:28;101428.31;;;8.25;76.38
14089;BME280;7120;52.890;6.040;2022-12-07T12:46:57;101433.06;;;7.52;79.28
14089;BME280;7120;52.890;6.040;2022-12-07T12:51:55;101424.97;;;7.09;79.32
14089;BME280;7120;52.890;6.040;2022-12-07T12:54:34;101420.00;;;6.91;80.28
14089;BME280;7120;52.890;6.040;2022-12-07T12:57:28;101412.91;;;6.90;80.52
14089;BME280;7120;52.890;6.040;2022-12-07T13:02:29;101417.47;;;6.79;82.29
14089;BME280;7120;52.890;6.040;2022-12-07T13:04:58;101418.34;;;6.90;81.82
14089;BME280;7120;52.890;6.040;2022-12-07T13:13:28;101403.63;;;7.43;80.22
14089;BME280;7120;52.890;6.040;2022-12-07T13:16:36;101404.53;;;7.75;79.15
14089;BME280;7120;52.890;6.040;2022-12-07T13:18:37;101400.75;;;7.76;79.70
14089;BME280;7120;52.890;6.040;2022-12-07T13:28:42;101392.78;;;7.59;78.61
14089;BME280;7120;52.890;6.040;2022-12-07T13:31:15;101396.00;;;7.46;78.94
14089;BME280;7120;52.890;6.040;2022-12-07T13:33:45;101390.28;;;7.37;79.65
14089;BME280;7120;52.890;6.040;2022-12-07T13:36:29;101391.88;;;7.33;79.60
14089;BME280;7120;52.890;6.040;2022-12-07T13:39:11;101382.59;;;7.13;80.61
14089;BME280;7120;52.890;6.040;2022-12-07T13:41:42;101381.75;;;7.13;80.70
14089;BME280;7120;52.890;6.040;2022-12-07T13:44:13;101374.63;;;7.02;80.28
14089;BME280;7120;52.890;6.040;2022-12-07T13:49:51;101364.06;;;7.05;80.61
14089;BME280;7120;52.890;6.040;2022-12-07T13:57:16;101374.13;;;7.10;80.67
14089;BME280;7120;52.890;6.040;2022-12-07T13:59:42;101373.28;;;6.99;81.27
14089;BME280;7120;52.890;6.040;2022-12-07T14:02:30;101375.66;;;6.91;81.67
14089;BME280;7120;52.890;6.040;2022-12-07T14:05:29;101374.59;;;6.97;81.40
14089;BME280;7120;52.890;6.040;2022-12-07T14:08:00;101376.78;;;6.95;80.68
14089;BME280;7120;52.890;6.040;2022-12-07T14:10:31;101361.59;;;7.09;80.61
14089;BME280;7120;52.890;6.040;2022-12-07T14:12:58;101345.19;;;6.88;80.35
14089;BME280;7120;52.890;6.040;2022-12-07T14:15:28;101349.28;;;6.86;81.53
14089;BME280;7120;52.890;6.040;2022-12-07T14:17:55;101344.03;;;6.74;80.41
14089;BME280;7120;52.890;6.040;2022-12-07T14:23:02;101357.59;;;6.69;80.51
14089;BME280;7120;52.890;6.040;2022-12-07T14:25:48;101345.16;;;6.83;82.01
14089;BME280;7120;52.890;6.040;2022-12-07T14:28:30;101355.50;;;6.81;81.86
14089;BME280;7120;52.890;6.040;2022-12-07T14:30:56;101357.34;;;6.71;81.67
14089;BME280;7120;52.890;6.040;2022-12-07T14:33:22;101359.72;;;6.57;82.47
14089;BME280;7120;52.890;6.040;2022-12-07T14:35:48;101358.94;;;6.24;84.79
14089;BME280;7120;52.890;6.040;2022-12-07T14:38:14;101376.50;;;5.85;86.94
14089;BME280;7120;52.890;6.040;2022-12-07T14:40:40;101372.38;;;5.28;88.72
14089;BME280;7120;52.890;6.040;2022-12-07T14:43:12;101371.72;;;5.16;90.13
14089;BME280;7120;52.890;6.040;2022-12-07T14:45:38;101349.13;;;4.88;90.94
14089;BME280;7120;52.890;6.040;2022-12-07T14:48:05;101346.41;;;5.10;90.55
14089;BME280;7120;52.890;6.040;2022-12-07T14:50:35;101325.00;;;5.09;92.39
14089;BME280;7120;52.890;6.040;2022-12-07T14:53:06;101336.66;;;5.09;92.20
14089;BME280;7120;52.890;6.040;2022-12-07T14:55:34;101312.88;;;5.16;90.85
14089;BME280;7120;52.890;6.040;2022-12-07T14:58:00;101311.06;;;5.22;89.73
14089;BME280;7120;52.890;6.040;2022-12-07T15:00:27;101310.50;;;4.98;90.80
14089;BME280;7120;52.890;6.040;2022-12-07T15:02:54;101321.59;;;4.96;91.24
14089;BME280;7120;52.890;6.040;2022-12-07T15:05:20;101325.38;;;4.95;91.40
14089;BME280;7120;52.890;6.040;2022-12-07T15:07:46;101314.97;;;4.87;91.00
14089;BME280;7120;52.890;6.040;2022-12-07T15:12:43;101317.28;;;4.79;91.29
14089;BME280;7120;52.890;6.040;2022-12-07T15:15:09;101323.03;;;4.60;91.09
14089;BME280;7120;52.890;6.040;2022-12-07T15:17:35;101315.78;;;4.44;91.70
14089;BME280;7120;52.890;6.040;2022-12-07T15:20:00;101315.13;;;4.37;92.17
14089;BME280;7120;52.890;6.040;2022-12-07T15:22:26;101310.91;;;4.46;92.23
14089;BME280;7120;52.890;6.040;2022-12-07T15:24:51;101304.53;;;4.35;92.14
14089;BME280;7120;52.890;6.040;2022-12-07T15:27:17;101314.06;;;4.38;91.95
14089;BME280;7120;52.890;6.040;2022-12-07T15:29:42;101303.81;;;4.23;91.74
14089;BME280;7120;52.890;6.040;2022-12-07T15:32:07;101307.34;;;4.24;92.13
14089;BME280;7120;52.890;6.040;2022-12-07T15:34:33;101304.00;;;4.17;92.39
14089;BME280;7120;52.890;6.040;2022-12-07T15:36:58;101302.09;;;4.17;92.45